createdAt,value
2019-06-20T00:01:16.101Z,11.33
2019-06-20T00:03:44.546Z,6.83
2019-06-20T00:06:13.250Z,6.10
2019-06-20T00:08:42.339Z,7.37
2019-06-20T00:11:10.791Z,5.53
2019-06-20T00:13:39.413Z,9.47
2019-06-20T00:16:07.943Z,10.10
2019-06-20T00:18:36.378Z,6.63
2019-06-20T00:21:04.717Z,6.13
2019-06-20T00:23:33.769Z,5.73
2019-06-20T00:26:06.679Z,5.03
2019-06-20T00:28:35.386Z,6.33
2019-06-20T00:31:03.800Z,5.17
2019-06-20T00:33:34.726Z,5.03
2019-06-20T00:36:03.123Z,7.20
2019-06-20T00:38:31.773Z,5.50
2019-06-20T00:41:00.478Z,5.27
2019-06-20T00:43:28.827Z,7.37
2019-06-20T00:45:57.395Z,4.47
2019-06-20T00:48:27.472Z,8.30
2019-06-20T00:50:56.250Z,4.00
2019-06-20T00:53:24.647Z,5.23
2019-06-20T00:55:53.689Z,6.37
2019-06-20T00:58:26.934Z,7.17
2019-06-20T01:00:55.530Z,4.30
2019-06-20T01:03:24.039Z,5.57
2019-06-20T01:05:54.263Z,3.33
2019-06-20T01:08:22.697Z,3.83
2019-06-20T01:10:51.070Z,3.20
2019-06-20T01:13:32.485Z,3.47
2019-06-20T01:15:49.415Z,5.60
2019-06-20T01:18:17.955Z,5.87
2019-06-20T01:20:46.463Z,3.13
2019-06-20T01:23:15.191Z,4.60
2019-06-20T01:25:44.131Z,3.10
2019-06-20T01:28:12.855Z,6.00
2019-06-20T01:30:43.899Z,4.97
2019-06-20T01:33:12.606Z,5.47
2019-06-20T01:35:43.239Z,4.30
2019-06-20T01:38:11.768Z,5.73
2019-06-20T01:40:40.416Z,10.20
2019-06-20T01:43:09.149Z,8.67
2019-06-20T01:45:37.617Z,8.73
2019-06-20T01:48:06.126Z,8.10
2019-06-20T01:50:35.115Z,8.90
2019-06-20T01:53:03.838Z,8.23
2019-06-20T01:55:32.444Z,9.70
2019-06-20T01:58:03.035Z,8.43
2019-06-20T02:00:36.037Z,12.40
2019-06-20T02:03:05.201Z,8.50
2019-06-20T02:05:33.774Z,10.30
2019-06-20T02:08:03.280Z,11.40
2019-06-20T02:10:31.793Z,8.37
2019-06-20T02:13:00.021Z,10.00
2019-06-20T02:15:28.570Z,11.77
2019-06-20T02:17:57.283Z,12.67
2019-06-20T02:20:34.092Z,11.77
2019-06-20T02:23:02.903Z,9.30
2019-06-20T02:25:31.739Z,10.87
2019-06-20T02:28:00.312Z,11.43
2019-06-20T02:30:29.061Z,12.77
2019-06-20T02:32:57.560Z,10.80
2019-06-20T02:35:26.253Z,12.10
2019-06-20T02:37:54.806Z,15.93
2019-06-20T02:40:23.602Z,14.70
2019-06-20T02:42:54.266Z,14.80
2019-06-20T02:45:22.934Z,14.20
2019-06-20T02:47:51.476Z,14.63
2019-06-20T02:50:19.846Z,13.93
2019-06-20T02:52:48.785Z,13.97
2019-06-20T02:55:17.372Z,13.67
2019-06-20T02:57:45.948Z,15.10
2019-06-20T03:00:14.785Z,16.17
2019-06-20T03:02:43.235Z,14.53
2019-06-20T03:05:11.900Z,13.63
2019-06-20T03:07:40.701Z,16.73
2019-06-20T03:10:10.292Z,15.73
2019-06-20T03:12:38.882Z,16.47
2019-06-20T03:15:07.483Z,14.50
2019-06-20T03:17:40.972Z,14.57
2019-06-20T03:20:10.698Z,14.27
2019-06-20T03:22:41.847Z,15.47
2019-06-20T03:25:13.697Z,16.53
2019-06-20T03:27:42.707Z,17.17
2019-06-20T03:30:12.944Z,15.73
2019-06-20T03:32:41.492Z,18.10
2019-06-20T03:35:10.599Z,13.70
2019-06-20T03:37:38.875Z,17.10
2019-06-20T03:40:07.754Z,16.00
2019-06-20T03:42:36.936Z,15.87
2019-06-20T03:45:05.486Z,16.00
2019-06-20T03:47:34.006Z,17.77
2019-06-20T03:50:02.431Z,18.77
2019-06-20T03:52:31.287Z,15.80
2019-06-20T03:55:03.970Z,18.63
2019-06-20T03:57:32.564Z,18.10
2019-06-20T04:00:01.534Z,17.77
2019-06-20T04:02:30.655Z,19.60
2019-06-20T04:04:58.813Z,17.80
2019-06-20T04:07:28.169Z,19.70
2019-06-20T04:09:56.609Z,19.50
2019-06-20T04:12:26.354Z,21.17
2019-06-20T04:14:54.671Z,22.40
2019-06-20T04:17:23.372Z,19.90
2019-06-20T04:20:03.078Z,20.43
2019-06-20T04:22:31.575Z,21.57
2019-06-20T04:25:00.006Z,21.70
2019-06-20T04:27:29.082Z,18.83
2019-06-20T04:29:58.578Z,21.80
2019-06-20T04:32:27.188Z,21.90
2019-06-20T04:34:55.706Z,23.13
2019-06-20T04:37:27.460Z,27.90
2019-06-20T04:39:56.040Z,23.67
2019-06-20T04:42:24.834Z,23.97
2019-06-20T04:44:55.007Z,22.87
2019-06-20T04:47:23.589Z,26.30
2019-06-20T04:49:51.987Z,25.27
2019-06-20T04:52:20.623Z,25.50
2019-06-20T04:54:49.077Z,25.33
2019-06-20T04:57:17.553Z,29.80
2019-06-20T04:59:45.983Z,27.10
2019-06-20T05:02:16.513Z,24.33
2019-06-20T05:04:45.031Z,27.57
2019-06-20T05:07:18.247Z,25.23
2019-06-20T05:09:47.850Z,28.47
2019-06-20T05:12:19.395Z,28.17
2019-06-20T05:14:48.197Z,24.87
2019-06-20T05:17:16.923Z,28.67
2019-06-20T05:19:45.532Z,25.63
2019-06-20T05:22:14.643Z,24.37
2019-06-20T05:24:43.161Z,26.60
2019-06-20T05:27:11.624Z,28.73
2019-06-20T05:29:40.855Z,25.20
2019-06-20T05:32:09.639Z,25.60
2019-06-20T05:34:38.597Z,27.13
2019-06-20T05:37:07.920Z,27.33
2019-06-20T05:39:37.287Z,27.07
2019-06-20T05:42:05.907Z,28.80
2019-06-20T05:44:34.565Z,25.97
2019-06-20T05:47:12.589Z,28.70
2019-06-20T05:49:34.652Z,26.07
2019-06-20T05:52:03.307Z,24.87
2019-06-20T05:54:31.947Z,25.57
2019-06-20T05:57:03.529Z,31.43
2019-06-20T05:59:31.149Z,25.17
2019-06-20T06:02:00.250Z,26.97
2019-06-20T06:04:30.385Z,27.37
2019-06-20T06:06:59.091Z,27.07
2019-06-20T06:09:27.530Z,29.13
2019-06-20T06:11:55.939Z,28.53
2019-06-20T06:14:24.507Z,25.47
2019-06-20T06:16:53.136Z,27.10
2019-06-20T06:19:21.720Z,28.60
2019-06-20T06:21:50.434Z,25.60
2019-06-20T06:24:19.109Z,26.30
2019-06-20T06:26:48.617Z,27.87
2019-06-20T06:29:17.402Z,23.90
2019-06-20T06:31:46.707Z,25.83
2019-06-20T06:34:15.500Z,26.10
2019-06-20T06:36:44.036Z,25.90
2019-06-20T06:39:12.658Z,25.67
2019-06-20T06:41:41.309Z,23.10
2019-06-20T06:44:09.864Z,23.37
2019-06-20T06:46:44.757Z,23.87
2019-06-20T06:49:08.940Z,22.37
2019-06-20T06:51:38.375Z,20.00
2019-06-20T06:54:06.994Z,23.77
2019-06-20T06:56:35.849Z,25.57
2019-06-20T06:59:05.119Z,23.37
2019-06-20T07:01:34.112Z,21.17
2019-06-20T07:04:02.759Z,18.60
2019-06-20T07:06:34.149Z,22.97
2019-06-20T07:09:03.244Z,20.90
2019-06-20T07:11:31.652Z,20.70
2019-06-20T07:14:00.509Z,18.27
2019-06-20T07:16:29.246Z,19.13
2019-06-20T07:18:57.604Z,17.27
2019-06-20T07:21:26.265Z,18.33
2019-06-20T07:23:55.201Z,16.37
2019-06-20T07:26:23.487Z,16.70
2019-06-20T07:28:52.123Z,16.53
2019-06-20T07:31:20.921Z,16.10
2019-06-20T07:33:49.486Z,15.67
2019-06-20T07:36:17.846Z,15.73
2019-06-20T07:38:47.249Z,15.17
2019-06-20T07:41:18.042Z,14.87
2019-06-20T07:43:46.636Z,11.93
2019-06-20T07:46:20.299Z,13.43
2019-06-20T07:48:50.054Z,12.33
2019-06-20T07:51:21.406Z,14.43
2019-06-20T07:53:49.777Z,11.07
2019-06-20T07:56:18.276Z,11.40
2019-06-20T07:58:46.829Z,12.00
2019-06-20T08:01:15.535Z,11.03
2019-06-20T08:03:45.236Z,10.43
2019-06-20T08:06:14.050Z,9.30
2019-06-20T08:08:42.579Z,10.87
2019-06-20T08:11:13.632Z,13.70
2019-06-20T08:13:43.024Z,14.40
2019-06-20T08:16:11.761Z,15.43
2019-06-20T08:18:41.278Z,13.50
2019-06-20T08:21:09.763Z,12.83
2019-06-20T08:23:38.333Z,12.53
2019-06-20T08:26:07.016Z,11.33
2019-06-20T08:28:36.306Z,11.57
2019-06-20T08:31:04.859Z,11.47
2019-06-20T08:33:33.429Z,10.03
2019-06-20T08:36:04.590Z,11.23
2019-06-20T08:38:32.929Z,11.87
2019-06-20T08:41:02.103Z,13.77
2019-06-20T08:43:31.245Z,10.90
2019-06-20T08:45:59.668Z,11.03
2019-06-20T08:48:28.146Z,9.53
2019-06-20T08:50:58.212Z,12.90
2019-06-20T08:53:27.011Z,12.33
2019-06-20T08:55:56.302Z,10.23
2019-06-20T08:58:26.174Z,9.73
2019-06-20T09:00:55.971Z,9.53
2019-06-20T09:03:25.071Z,11.83
2019-06-20T09:05:55.442Z,9.73
2019-06-20T09:08:27.251Z,8.43
2019-06-20T09:10:57.531Z,10.23
2019-06-20T09:13:26.225Z,10.60
2019-06-20T09:15:54.843Z,10.10
2019-06-20T09:18:23.253Z,10.53
2019-06-20T09:20:52.861Z,11.37
2019-06-20T09:23:22.039Z,7.87
2019-06-20T09:25:53.897Z,9.30
2019-06-20T09:28:22.080Z,9.67
2019-06-20T09:30:51.850Z,10.23
2019-06-20T09:33:23.978Z,9.83
2019-06-20T09:35:55.589Z,7.97
2019-06-20T09:38:25.310Z,9.93
2019-06-20T09:40:54.862Z,12.63
2019-06-20T09:43:27.816Z,9.13
2019-06-20T09:45:56.087Z,9.40
2019-06-20T09:48:25.080Z,8.03
2019-06-20T09:50:54.546Z,9.00
2019-06-20T09:53:22.920Z,7.03
2019-06-20T09:55:51.805Z,7.77
2019-06-20T09:58:20.639Z,8.70
2019-06-20T10:00:50.732Z,8.23
2019-06-20T10:03:19.597Z,6.93
2019-06-20T10:05:49.290Z,8.20
2019-06-20T10:08:18.605Z,8.57
2019-06-20T10:10:48.924Z,8.83
2019-06-20T10:13:17.552Z,7.30
2019-06-20T10:15:46.696Z,6.80
2019-06-20T10:18:17.906Z,7.83
2019-06-20T10:20:47.267Z,6.43
2019-06-20T10:23:16.181Z,8.37
2019-06-20T10:25:46.021Z,6.93
2019-06-20T10:28:15.039Z,8.37
2019-06-20T10:30:44.725Z,7.17
2019-06-20T10:33:16.499Z,7.67
2019-06-20T10:35:48.354Z,7.47
2019-06-20T10:38:20.111Z,8.07
2019-06-20T10:40:49.818Z,9.43
2019-06-20T10:43:18.481Z,7.67
2019-06-20T10:45:47.418Z,6.83
2019-06-20T10:48:16.824Z,7.77
2019-06-20T10:50:47.727Z,7.67
2019-06-20T10:53:15.677Z,7.10
2019-06-20T10:55:45.449Z,9.23
2019-06-20T10:58:14.383Z,5.87
2019-06-20T11:00:46.145Z,9.80
2019-06-20T11:03:15.027Z,7.53
2019-06-20T11:05:43.861Z,6.20
2019-06-20T11:08:13.509Z,7.40
2019-06-20T11:10:43.484Z,8.63
2019-06-20T11:13:12.589Z,8.17
2019-06-20T11:15:42.218Z,9.03
2019-06-20T11:18:15.006Z,8.17
2019-06-20T11:20:44.401Z,6.27
2019-06-20T11:23:13.013Z,7.10
2019-06-20T11:25:41.986Z,6.33
2019-06-20T11:28:11.018Z,7.07
2019-06-20T11:30:53.077Z,7.27
2019-06-20T11:33:12.310Z,6.20
2019-06-20T11:35:41.880Z,7.83
2019-06-20T11:38:10.680Z,6.27
2019-06-20T11:40:39.946Z,7.70
2019-06-20T11:43:10.404Z,9.17
2019-06-20T11:45:39.143Z,6.47
2019-06-20T11:48:07.690Z,8.37
2019-06-20T11:50:36.349Z,6.93
2019-06-20T11:53:05.358Z,8.47
2019-06-20T11:55:33.939Z,6.93
2019-06-20T11:58:02.824Z,6.77
2019-06-20T12:00:31.307Z,6.77
2019-06-20T12:03:00.433Z,6.60
2019-06-20T12:05:29.107Z,8.40
2019-06-20T12:07:58.706Z,10.27
2019-06-20T12:10:27.362Z,10.00
2019-06-20T12:12:56.784Z,7.60
2019-06-20T12:15:25.484Z,8.17
2019-06-20T12:17:54.116Z,9.00
2019-06-20T12:20:24.061Z,8.80
2019-06-20T12:22:52.537Z,9.50
2019-06-20T12:25:21.814Z,7.57
2019-06-20T12:27:50.344Z,10.90
2019-06-20T12:30:20.727Z,10.20
2019-06-20T12:32:49.639Z,9.00
2019-06-20T12:35:18.334Z,8.83
2019-06-20T12:37:47.785Z,8.93
2019-06-20T12:40:16.682Z,8.23
2019-06-20T12:42:46.636Z,7.20
2019-06-20T12:45:15.975Z,10.15
2019-06-20T12:47:47.331Z,8.20
2019-06-20T12:50:16.547Z,7.53
2019-06-20T12:52:45.718Z,7.83
2019-06-20T12:55:14.896Z,7.33
2019-06-20T12:57:44.193Z,13.33
2019-06-20T13:00:13.354Z,12.20
2019-06-20T13:02:42.375Z,9.87
2019-06-20T13:05:12.010Z,10.80
2019-06-20T13:07:42.175Z,9.83
2019-06-20T13:10:10.940Z,8.83
2019-06-20T13:12:41.428Z,8.23
2019-06-20T13:15:10.906Z,8.07
2019-06-20T13:17:51.548Z,9.77
2019-06-20T13:20:22.903Z,7.40
2019-06-20T13:22:51.805Z,6.77
2019-06-20T13:25:20.404Z,6.80
2019-06-20T13:27:50.605Z,7.53
2019-06-20T13:30:19.673Z,9.83
2019-06-20T13:32:48.949Z,8.73
2019-06-20T13:35:17.786Z,7.87
2019-06-20T13:37:47.887Z,6.13
2019-06-20T13:40:17.034Z,5.70
2019-06-20T13:42:46.130Z,5.90
2019-06-20T13:45:22.460Z,6.17
2019-06-20T13:47:51.165Z,6.93
2019-06-20T13:50:20.328Z,6.67
2019-06-20T13:52:50.711Z,5.63
2019-06-20T13:55:19.278Z,6.57
2019-06-20T13:57:49.261Z,5.03
2019-06-20T14:00:18.492Z,6.03
2019-06-20T14:02:48.728Z,5.23
2019-06-20T14:05:17.823Z,6.50
2019-06-20T14:07:48.414Z,5.73
2019-06-20T14:10:20.528Z,6.43
2019-06-20T14:12:49.208Z,5.37
2019-06-20T14:15:19.395Z,5.63
2019-06-20T14:17:49.469Z,5.83
2019-06-20T14:20:19.721Z,4.73
2019-06-20T14:22:49.445Z,5.67
2019-06-20T14:25:20.717Z,4.53
2019-06-20T14:27:49.517Z,6.03
2019-06-20T14:30:20.899Z,4.27
2019-06-20T14:32:49.531Z,4.87
2019-06-20T14:35:18.707Z,6.60
2019-06-20T14:37:47.828Z,5.80
2019-06-20T14:40:17.405Z,4.30
2019-06-20T14:42:47.921Z,3.90
2019-06-20T14:45:16.736Z,3.57
2019-06-20T14:47:45.154Z,3.80
2019-06-20T14:50:14.532Z,4.37
2019-06-20T14:52:44.178Z,4.07
2019-06-20T14:55:13.502Z,4.43
2019-06-20T14:57:46.559Z,4.00
2019-06-20T15:00:15.519Z,4.70
2019-06-20T15:02:45.829Z,5.60
2019-06-20T15:05:15.211Z,4.83
2019-06-20T15:07:45.088Z,4.60
2019-06-20T15:10:16.343Z,3.93
2019-06-20T15:12:46.454Z,6.33
2019-06-20T15:15:15.690Z,4.47
2019-06-20T15:17:46.511Z,5.67
2019-06-20T15:20:14.747Z,4.33
2019-06-20T15:22:43.111Z,4.37
2019-06-20T15:25:13.981Z,5.83
2019-06-20T15:27:47.251Z,4.27
2019-06-20T15:30:15.387Z,4.87
2019-06-20T15:32:55.719Z,4.20
2019-06-20T15:35:14.123Z,7.50
2019-06-20T15:37:42.619Z,4.97
2019-06-20T15:40:11.568Z,4.93
2019-06-20T15:42:41.832Z,5.03
2019-06-20T15:45:10.738Z,4.20
2019-06-20T15:47:39.007Z,3.97
2019-06-20T15:50:07.465Z,5.03
2019-06-20T15:52:36.324Z,5.93
2019-06-20T15:55:05.161Z,4.60
2019-06-20T15:57:33.856Z,3.67
2019-06-20T16:00:02.683Z,4.00
2019-06-20T16:02:31.353Z,3.73
2019-06-20T16:04:59.900Z,5.13
2019-06-20T16:07:28.584Z,3.93
2019-06-20T16:09:57.288Z,4.37
2019-06-20T16:12:25.844Z,6.00
2019-06-20T16:14:54.190Z,4.97
2019-06-20T16:17:25.100Z,5.80
2019-06-20T16:19:53.624Z,5.13
2019-06-20T16:22:25.206Z,3.50
2019-06-20T16:24:54.858Z,4.83
2019-06-20T16:27:24.825Z,3.73
2019-06-20T16:29:53.325Z,6.03
2019-06-20T16:32:21.864Z,6.17
2019-06-20T16:34:50.403Z,5.20
2019-06-20T16:37:19.056Z,5.13
2019-06-20T16:39:47.634Z,4.93
2019-06-20T16:42:16.117Z,5.27
2019-06-20T16:44:44.389Z,6.53
2019-06-20T16:47:14.994Z,6.50
2019-06-20T16:49:43.989Z,7.37
2019-06-20T16:52:13.091Z,6.63
2019-06-20T16:54:41.694Z,5.13
2019-06-20T16:57:10.430Z,7.10
2019-06-20T16:59:38.934Z,6.77
2019-06-20T17:02:07.923Z,7.53
2019-06-20T17:04:36.553Z,7.03
2019-06-20T17:07:05.122Z,6.23
2019-06-20T17:09:36.373Z,8.40
2019-06-20T17:12:05.463Z,5.00
2019-06-20T17:14:34.302Z,4.23
2019-06-20T17:17:02.723Z,4.87
2019-06-20T17:19:31.638Z,3.90
2019-06-20T17:22:00.083Z,4.00
2019-06-20T17:24:28.438Z,3.80
2019-06-20T17:26:59.214Z,4.03
2019-06-20T17:29:28.164Z,4.30
2019-06-20T17:31:57.463Z,6.17
2019-06-20T17:34:27.581Z,6.83
2019-06-20T17:36:56.009Z,6.13
2019-06-20T17:39:24.801Z,5.87
2019-06-20T17:41:55.472Z,7.53
2019-06-20T17:44:23.531Z,6.60
2019-06-20T17:46:52.236Z,7.33
2019-06-20T17:49:20.865Z,6.77
2019-06-20T17:51:52.889Z,6.50
2019-06-20T17:54:21.366Z,9.40
2019-06-20T17:56:49.803Z,7.97
2019-06-20T17:59:18.202Z,9.10
2019-06-20T18:01:46.772Z,8.07
2019-06-20T18:04:15.470Z,6.97
2019-06-20T18:06:46.493Z,5.87
2019-06-20T18:09:14.848Z,8.30
2019-06-20T18:11:44.704Z,6.03
2019-06-20T18:14:13.778Z,5.77
2019-06-20T18:16:42.470Z,4.80
2019-06-20T18:19:11.416Z,4.67
2019-06-20T18:21:40.210Z,6.10
2019-06-20T18:24:09.036Z,6.23
2019-06-20T18:26:37.561Z,6.90
2019-06-20T18:29:05.913Z,3.77
2019-06-20T18:31:34.469Z,5.13
2019-06-20T18:34:04.212Z,5.83
2019-06-20T18:36:35.794Z,4.93
2019-06-20T18:39:05.708Z,6.43
2019-06-20T18:41:34.451Z,4.60
2019-06-20T18:44:03.073Z,4.30
2019-06-20T18:46:31.723Z,5.20
2019-06-20T18:49:00.219Z,5.80
2019-06-20T18:51:28.893Z,7.27
2019-06-20T18:53:57.307Z,5.60
2019-06-20T18:56:25.956Z,7.30
2019-06-20T18:58:54.431Z,8.40
2019-06-20T19:01:23.019Z,8.97
2019-06-20T19:03:51.708Z,6.60
2019-06-20T19:06:35.090Z,6.40
2019-06-20T19:08:51.639Z,36.70
2019-06-20T19:11:20.234Z,7.23
2019-06-20T19:13:53.429Z,7.47
2019-06-20T19:16:22.350Z,10.90
2019-06-20T19:18:51.007Z,8.40
2019-06-20T19:21:20.349Z,7.80
2019-06-20T19:23:48.815Z,8.53
2019-06-20T19:26:17.235Z,7.60
2019-06-20T19:28:45.725Z,6.30
2019-06-20T19:31:14.273Z,7.47
2019-06-20T19:33:43.288Z,9.53
2019-06-20T19:36:12.278Z,8.57
2019-06-20T19:38:41.090Z,7.67
2019-06-20T19:41:09.774Z,7.90
2019-06-20T19:43:38.635Z,7.43
2019-06-20T19:46:07.166Z,7.67
2019-06-20T19:48:36.914Z,10.17
2019-06-20T19:51:06.044Z,11.17
2019-06-20T19:53:34.722Z,11.03
2019-06-20T19:56:02.975Z,10.33
2019-06-20T19:58:32.623Z,14.20
2019-06-20T20:01:01.414Z,11.00
2019-06-20T20:03:30.312Z,10.00
2019-06-20T20:05:59.748Z,10.73
2019-06-20T20:08:28.263Z,11.07
2019-06-20T20:10:57.006Z,11.30
2019-06-20T20:13:25.273Z,12.43
2019-06-20T20:15:53.936Z,13.47
2019-06-20T20:18:22.546Z,12.27
2019-06-20T20:20:54.251Z,13.33
2019-06-20T20:23:23.110Z,14.10
2019-06-20T20:25:52.620Z,14.23
2019-06-20T20:28:21.093Z,14.30
2019-06-20T20:30:53.549Z,13.67
2019-06-20T20:33:20.243Z,13.50
2019-06-20T20:35:48.695Z,15.17
2019-06-20T20:38:17.091Z,14.80
2019-06-20T20:40:45.681Z,14.73
2019-06-20T20:43:14.075Z,15.53
2019-06-20T20:45:42.671Z,17.40
2019-06-20T20:48:11.473Z,14.63
2019-06-20T20:50:40.249Z,15.60
2019-06-20T20:53:08.619Z,15.60
2019-06-20T20:55:37.100Z,16.37
2019-06-20T20:58:06.023Z,16.80
2019-06-20T21:00:41.465Z,16.20
2019-06-20T21:03:10.421Z,17.67
2019-06-20T21:05:50.971Z,17.83
2019-06-20T21:08:11.373Z,18.13
2019-06-20T21:10:41.264Z,17.20
2019-06-20T21:13:15.087Z,17.97
2019-06-20T21:15:46.811Z,18.23
2019-06-20T21:18:17.457Z,17.60
2019-06-20T21:20:47.470Z,19.03
2019-06-20T21:23:17.559Z,19.70
2019-06-20T21:25:47.829Z,19.43
2019-06-20T21:28:17.167Z,19.73
2019-06-20T21:30:46.348Z,18.90
2019-06-20T21:33:15.446Z,20.07
2019-06-20T21:35:45.395Z,19.93
2019-06-20T21:38:14.425Z,19.40
2019-06-20T21:40:46.444Z,19.27
2019-06-20T21:43:15.239Z,19.50
2019-06-20T21:45:44.020Z,20.50
2019-06-20T21:48:12.651Z,20.63
2019-06-20T21:50:41.221Z,19.80
2019-06-20T21:53:09.697Z,19.93
2019-06-20T21:55:38.129Z,19.13
2019-06-20T21:58:06.473Z,20.17
2019-06-20T22:00:40.748Z,19.87
2019-06-20T22:03:10.193Z,17.57
2019-06-20T22:05:39.223Z,27.00
2019-06-20T22:08:08.092Z,18.20
2019-06-20T22:10:36.462Z,22.90
2019-06-20T22:13:05.650Z,20.17
2019-06-20T22:15:34.153Z,20.80
2019-06-20T22:18:03.234Z,17.93
2019-06-20T22:20:31.778Z,17.00
2019-06-20T22:23:00.342Z,17.83
2019-06-20T22:25:30.025Z,20.33
2019-06-20T22:27:58.867Z,19.97
2019-06-20T22:30:46.664Z,19.47
2019-06-20T22:33:18.588Z,19.43
2019-06-20T22:35:46.979Z,18.10
2019-06-20T22:38:15.977Z,18.33
2019-06-20T22:40:44.748Z,18.53
2019-06-20T22:43:13.319Z,17.77
2019-06-20T22:45:41.920Z,18.23
2019-06-20T22:48:10.852Z,18.53
2019-06-20T22:50:39.447Z,20.37
2019-06-20T22:53:08.096Z,20.00
2019-06-20T22:55:37.525Z,19.90
2019-06-20T22:58:06.601Z,21.60
2019-06-20T23:00:35.361Z,19.60
2019-06-20T23:03:04.004Z,19.10
2019-06-20T23:05:32.530Z,19.83
2019-06-20T23:08:01.014Z,19.37
2019-06-20T23:10:29.696Z,17.50
2019-06-20T23:12:58.794Z,17.43
2019-06-20T23:15:27.994Z,19.60
2019-06-20T23:17:59.562Z,16.07
2019-06-20T23:20:28.568Z,16.33
2019-06-20T23:22:57.015Z,17.13
2019-06-20T23:25:25.913Z,15.60
2019-06-20T23:27:54.519Z,15.23
2019-06-20T23:30:25.453Z,15.10
2019-06-20T23:32:54.550Z,15.97
2019-06-20T23:35:25.007Z,15.03
2019-06-20T23:37:53.589Z,15.93
2019-06-20T23:40:22.544Z,17.23
2019-06-20T23:42:51.020Z,16.53
2019-06-20T23:45:19.520Z,14.57
2019-06-20T23:47:47.992Z,13.67
2019-06-20T23:50:19.891Z,15.37
2019-06-20T23:52:52.541Z,12.93
2019-06-20T23:55:21.123Z,12.33
2019-06-20T23:57:49.689Z,13.17
